sensor_id;sensor_type;location;lat;lon;timestamp;P1;durP1;ratioP1;P2;durP2;ratioP2
3121;SDS011;1571;52.524;14.104;2023-09-08T00:00:21;8.37;;;7.57;;
3121;SDS011;1571;52.524;14.104;2023-09-08T00:02:49;8.63;;;7.70;;
3121;SDS011;1571;52.524;14.104;2023-09-08T00:05:17;9.00;;;8.00;;
3121;SDS011;1571;52.524;14.104;2023-09-08T00:07:46;7.37;;;6.57;;
3121;SDS011;1571;52.524;14.104;2023-09-08T00:10:15;7.20;;;6.50;;
3121;SDS011;1571;52.524;14.104;2023-09-08T00:12:43;7.47;;;6.33;;
3121;SDS011;1571;52.524;14.104;2023-09-08T00:15:13;11.23;;;6.90;;
3121;SDS011;1571;52.524;14.104;2023-09-08T00:17:41;6.93;;;6.23;;
3121;SDS011;1571;52.524;14.104;2023-09-08T00:20:10;7.80;;;7.10;;
3121;SDS011;1571;52.524;14.104;2023-09-08T00:22:38;9.20;;;7.03;;
3121;SDS011;1571;52.524;14.104;2023-09-08T00:25:07;9.27;;;7.40;;
3121;SDS011;1571;52.524;14.104;2023-09-08T00:27:36;8.40;;;6.50;;
3121;SDS011;1571;52.524;14.104;2023-09-08T00:30:05;7.13;;;6.53;;
3121;SDS011;1571;52.524;14.104;2023-09-08T00:32:35;8.00;;;6.87;;
3121;SDS011;1571;52.524;14.104;2023-09-08T00:35:05;8.13;;;7.40;;
3121;SDS011;1571;52.524;14.104;2023-09-08T00:37:34;8.30;;;6.20;;
3121;SDS011;1571;52.524;14.104;2023-09-08T00:40:02;8.00;;;7.20;;
3121;SDS011;1571;52.524;14.104;2023-09-08T00:42:31;8.57;;;7.60;;
3121;SDS011;1571;52.524;14.104;2023-09-08T00:44:59;7.67;;;6.87;;
3121;SDS011;1571;52.524;14.104;2023-09-08T00:47:27;7.80;;;7.00;;
3121;SDS011;1571;52.524;14.104;2023-09-08T00:49:57;9.00;;;6.77;;
3121;SDS011;1571;52.524;14.104;2023-09-08T00:52:26;6.80;;;6.00;;
3121;SDS011;1571;52.524;14.104;2023-09-08T00:54:59;8.23;;;7.47;;
3121;SDS011;1571;52.524;14.104;2023-09-08T00:57:28;6.63;;;6.00;;
3121;SDS011;1571;52.524;14.104;2023-09-08T00:59:57;8.80;;;7.60;;
3121;SDS011;1571;52.524;14.104;2023-09-08T01:02:25;10.30;;;8.43;;
3121;SDS011;1571;52.524;14.104;2023-09-08T01:04:54;8.37;;;7.07;;
3121;SDS011;1571;52.524;14.104;2023-09-08T01:07:24;6.87;;;6.17;;
3121;SDS011;1571;52.524;14.104;2023-09-08T01:09:53;10.90;;;7.53;;
3121;SDS011;1571;52.524;14.104;2023-09-08T01:12:22;7.63;;;6.87;;
3121;SDS011;1571;52.524;14.104;2023-09-08T01:14:51;9.27;;;7.80;;
3121;SDS011;1571;52.524;14.104;2023-09-08T01:17:19;7.57;;;6.77;;
3121;SDS011;1571;52.524;14.104;2023-09-08T01:19:47;10.80;;;7.93;;
3121;SDS011;1571;52.524;14.104;2023-09-08T01:22:21;7.30;;;6.60;;
3121;SDS011;1571;52.524;14.104;2023-09-08T01:25:11;9.40;;;8.40;;
3121;SDS011;1571;52.524;14.104;2023-09-08T01:27:45;9.17;;;7.63;;
3121;SDS011;1571;52.524;14.104;2023-09-08T01:30:15;12.03;;;9.17;;
3121;SDS011;1571;52.524;14.104;2023-09-08T01:32:44;10.20;;;9.17;;
3121;SDS011;1571;52.524;14.104;2023-09-08T01:35:13;8.37;;;7.37;;
3121;SDS011;1571;52.524;14.104;2023-09-08T01:37:44;10.27;;;8.10;;
3121;SDS011;1571;52.524;14.104;2023-09-08T01:40:14;8.60;;;7.20;;
3121;SDS011;1571;52.524;14.104;2023-09-08T01:42:44;13.97;;;9.73;;
3121;SDS011;1571;52.524;14.104;2023-09-08T01:45:13;13.07;;;9.07;;
3121;SDS011;1571;52.524;14.104;2023-09-08T01:47:41;10.73;;;8.00;;
3121;SDS011;1571;52.524;14.104;2023-09-08T01:50:10;8.53;;;7.63;;
3121;SDS011;1571;52.524;14.104;2023-09-08T01:52:39;10.03;;;8.13;;
3121;SDS011;1571;52.524;14.104;2023-09-08T01:55:07;9.07;;;8.17;;
3121;SDS011;1571;52.524;14.104;2023-09-08T01:57:37;11.40;;;8.00;;
3121;SDS011;1571;52.524;14.104;2023-09-08T02:00:06;10.37;;;9.23;;
3121;SDS011;1571;52.524;14.104;2023-09-08T02:02:41;9.30;;;7.37;;
3121;SDS011;1571;52.524;14.104;2023-09-08T02:05:09;9.47;;;7.00;;
3121;SDS011;1571;52.524;14.104;2023-09-08T02:07:37;7.97;;;7.10;;
3121;SDS011;1571;52.524;14.104;2023-09-08T02:10:06;11.53;;;8.00;;
3121;SDS011;1571;52.524;14.104;2023-09-08T02:12:36;7.50;;;6.57;;
3121;SDS011;1571;52.524;14.104;2023-09-08T02:15:05;8.63;;;7.57;;
3121;SDS011;1571;52.524;14.104;2023-09-08T02:17:34;7.53;;;6.73;;
3121;SDS011;1571;52.524;14.104;2023-09-08T02:20:03;8.60;;;7.73;;
3121;SDS011;1571;52.524;14.104;2023-09-08T02:22:32;12.00;;;9.00;;
3121;SDS011;1571;52.524;14.104;2023-09-08T02:25:00;11.20;;;8.50;;
3121;SDS011;1571;52.524;14.104;2023-09-08T02:27:28;10.93;;;8.77;;
3121;SDS011;1571;52.524;14.104;2023-09-08T02:29:58;9.70;;;8.27;;
3121;SDS011;1571;52.524;14.104;2023-09-08T02:32:28;8.67;;;7.77;;
3121;SDS011;1571;52.524;14.104;2023-09-08T02:34:57;9.63;;;7.83;;
3121;SDS011;1571;52.524;14.104;2023-09-08T02:37:25;10.20;;;7.30;;
3121;SDS011;1571;52.524;14.104;2023-09-08T02:39:54;8.90;;;8.00;;
3121;SDS011;1571;52.524;14.104;2023-09-08T02:42:22;7.83;;;7.20;;
3121;SDS011;1571;52.524;14.104;2023-09-08T02:44:50;7.23;;;6.53;;
3121;SDS011;1571;52.524;14.104;2023-09-08T02:47:21;7.03;;;6.33;;
3121;SDS011;1571;52.524;14.104;2023-09-08T02:49:50;9.37;;;7.90;;
3121;SDS011;1571;52.524;14.104;2023-09-08T02:52:18;9.20;;;6.60;;
3121;SDS011;1571;52.524;14.104;2023-09-08T02:54:47;8.87;;;7.00;;
3121;SDS011;1571;52.524;14.104;2023-09-08T02:57:15;7.63;;;6.90;;
3121;SDS011;1571;52.524;14.104;2023-09-08T02:59:48;12.90;;;7.60;;
3121;SDS011;1571;52.524;14.104;2023-09-08T03:02:17;8.10;;;6.23;;
3121;SDS011;1571;52.524;14.104;2023-09-08T03:04:47;8.17;;;7.30;;
3121;SDS011;1571;52.524;14.104;2023-09-08T03:07:15;8.93;;;7.30;;
3121;SDS011;1571;52.524;14.104;2023-09-08T03:09:43;8.27;;;7.47;;
3121;SDS011;1571;52.524;14.104;2023-09-08T03:12:13;10.03;;;7.80;;
3121;SDS011;1571;52.524;14.104;2023-09-08T03:14:42;10.30;;;8.80;;
3121;SDS011;1571;52.524;14.104;2023-09-08T03:17:10;11.83;;;9.00;;
3121;SDS011;1571;52.524;14.104;2023-09-08T03:19:39;8.60;;;7.50;;
3121;SDS011;1571;52.524;14.104;2023-09-08T03:22:09;8.53;;;7.60;;
3121;SDS011;1571;52.524;14.104;2023-09-08T03:24:37;7.70;;;7.00;;
3121;SDS011;1571;52.524;14.104;2023-09-08T03:27:05;8.60;;;7.83;;
3121;SDS011;1571;52.524;14.104;2023-09-08T03:29:34;8.80;;;7.90;;
3121;SDS011;1571;52.524;14.104;2023-09-08T03:32:02;8.60;;;7.80;;
3121;SDS011;1571;52.524;14.104;2023-09-08T03:34:31;8.50;;;7.70;;
3121;SDS011;1571;52.524;14.104;2023-09-08T03:37:01;8.33;;;7.60;;
3121;SDS011;1571;52.524;14.104;2023-09-08T03:39:30;8.17;;;7.37;;
3121;SDS011;1571;52.524;14.104;2023-09-08T03:42:01;8.83;;;7.97;;
3121;SDS011;1571;52.524;14.104;2023-09-08T03:44:30;8.90;;;8.03;;
3121;SDS011;1571;52.524;14.104;2023-09-08T03:46:58;9.27;;;7.50;;
3121;SDS011;1571;52.524;14.104;2023-09-08T03:49:30;9.10;;;8.20;;
3121;SDS011;1571;52.524;14.104;2023-09-08T03:51:58;7.27;;;6.33;;
3121;SDS011;1571;52.524;14.104;2023-09-08T03:54:27;8.50;;;7.80;;
3121;SDS011;1571;52.524;14.104;2023-09-08T03:56:56;10.60;;;7.57;;
3121;SDS011;1571;52.524;14.104;2023-09-08T03:59:24;9.17;;;8.17;;
3121;SDS011;1571;52.524;14.104;2023-09-08T04:01:53;8.77;;;7.97;;
3121;SDS011;1571;52.524;14.104;2023-09-08T04:04:21;7.40;;;6.80;;
3121;SDS011;1571;52.524;14.104;2023-09-08T04:06:49;9.23;;;8.43;;
3121;SDS011;1571;52.524;14.104;2023-09-08T04:09:17;8.50;;;7.67;;
3121;SDS011;1571;52.524;14.104;2023-09-08T04:11:46;9.00;;;8.10;;
3121;SDS011;1571;52.524;14.104;2023-09-08T04:14:16;11.83;;;10.63;;
3121;SDS011;1571;52.524;14.104;2023-09-08T04:16:44;11.23;;;9.70;;
3121;SDS011;1571;52.524;14.104;2023-09-08T04:19:12;11.97;;;10.60;;
3121;SDS011;1571;52.524;14.104;2023-09-08T04:21:41;12.67;;;10.50;;
3121;SDS011;1571;52.524;14.104;2023-09-08T04:24:09;14.30;;;12.47;;
3121;SDS011;1571;52.524;14.104;2023-09-08T04:26:38;14.10;;;11.57;;
3121;SDS011;1571;52.524;14.104;2023-09-08T04:29:06;17.67;;;12.03;;
3121;SDS011;1571;52.524;14.104;2023-09-08T04:31:36;13.37;;;11.97;;
3121;SDS011;1571;52.524;14.104;2023-09-08T04:34:04;13.70;;;11.73;;
3121;SDS011;1571;52.524;14.104;2023-09-08T04:36:32;14.87;;;12.23;;
3121;SDS011;1571;52.524;14.104;2023-09-08T04:39:01;12.70;;;10.60;;
3121;SDS011;1571;52.524;14.104;2023-09-08T04:41:29;12.53;;;11.23;;
3121;SDS011;1571;52.524;14.104;2023-09-08T04:43:57;12.57;;;11.30;;
3121;SDS011;1571;52.524;14.104;2023-09-08T04:46:26;12.77;;;11.37;;
3121;SDS011;1571;52.524;14.104;2023-09-08T04:48:56;14.03;;;11.37;;
3121;SDS011;1571;52.524;14.104;2023-09-08T04:51:24;13.40;;;12.00;;
3121;SDS011;1571;52.524;14.104;2023-09-08T04:53:52;17.53;;;13.73;;
3121;SDS011;1571;52.524;14.104;2023-09-08T04:56:21;13.63;;;12.23;;
3121;SDS011;1571;52.524;14.104;2023-09-08T04:58:49;14.40;;;11.77;;
3121;SDS011;1571;52.524;14.104;2023-09-08T05:01:18;14.50;;;12.37;;
3121;SDS011;1571;52.524;14.104;2023-09-08T05:03:46;15.40;;;11.63;;
3121;SDS011;1571;52.524;14.104;2023-09-08T05:06:16;13.73;;;12.27;;
3121;SDS011;1571;52.524;14.104;2023-09-08T05:08:45;15.13;;;11.03;;
3121;SDS011;1571;52.524;14.104;2023-09-08T05:11:13;18.30;;;13.20;;
3121;SDS011;1571;52.524;14.104;2023-09-08T05:13:41;15.53;;;13.13;;
3121;SDS011;1571;52.524;14.104;2023-09-08T05:16:10;16.77;;;12.13;;
3121;SDS011;1571;52.524;14.104;2023-09-08T05:18:48;18.30;;;13.73;;
3121;SDS011;1571;52.524;14.104;2023-09-08T05:21:17;15.33;;;13.47;;
3121;SDS011;1571;52.524;14.104;2023-09-08T05:23:46;16.70;;;12.73;;
3121;SDS011;1571;52.524;14.104;2023-09-08T05:26:15;14.77;;;11.63;;
3121;SDS011;1571;52.524;14.104;2023-09-08T05:28:43;16.13;;;11.97;;
3121;SDS011;1571;52.524;14.104;2023-09-08T05:31:12;16.30;;;12.77;;
3121;SDS011;1571;52.524;14.104;2023-09-08T05:33:40;13.07;;;11.30;;
3121;SDS011;1571;52.524;14.104;2023-09-08T05:36:08;13.93;;;12.53;;
3121;SDS011;1571;52.524;14.104;2023-09-08T05:38:42;13.20;;;11.80;;
3121;SDS011;1571;52.524;14.104;2023-09-08T05:41:10;13.17;;;11.80;;
3121;SDS011;1571;52.524;14.104;2023-09-08T05:43:38;13.67;;;12.00;;
3121;SDS011;1571;52.524;14.104;2023-09-08T05:46:07;14.67;;;11.93;;
3121;SDS011;1571;52.524;14.104;2023-09-08T05:48:35;18.23;;;12.67;;
3121;SDS011;1571;52.524;14.104;2023-09-08T05:51:04;13.23;;;11.93;;
3121;SDS011;1571;52.524;14.104;2023-09-08T05:53:34;14.50;;;12.07;;
3121;SDS011;1571;52.524;14.104;2023-09-08T05:56:04;15.37;;;12.63;;
3121;SDS011;1571;52.524;14.104;2023-09-08T05:58:33;14.37;;;12.03;;
3121;SDS011;1571;52.524;14.104;2023-09-08T06:01:03;17.67;;;12.27;;
3121;SDS011;1571;52.524;14.104;2023-09-08T06:03:33;12.73;;;11.50;;
3121;SDS011;1571;52.524;14.104;2023-09-08T06:06:01;14.03;;;12.60;;
3121;SDS011;1571;52.524;14.104;2023-09-08T06:08:30;15.80;;;11.97;;
3121;SDS011;1571;52.524;14.104;2023-09-08T06:10:59;14.87;;;11.77;;
3121;SDS011;1571;52.524;14.104;2023-09-08T06:13:28;13.03;;;11.40;;
3121;SDS011;1571;52.524;14.104;2023-09-08T06:15:56;12.03;;;10.83;;
3121;SDS011;1571;52.524;14.104;2023-09-08T06:18:27;12.20;;;10.83;;
3121;SDS011;1571;52.524;14.104;2023-09-08T06:20:57;10.77;;;9.70;;
3121;SDS011;1571;52.524;14.104;2023-09-08T06:23:25;15.40;;;12.00;;
3121;SDS011;1571;52.524;14.104;2023-09-08T06:25:55;12.03;;;10.77;;
3121;SDS011;1571;52.524;14.104;2023-09-08T06:28:29;12.57;;;11.37;;
3121;SDS011;1571;52.524;14.104;2023-09-08T06:30:57;15.60;;;12.77;;
3121;SDS011;1571;52.524;14.104;2023-09-08T06:33:26;15.10;;;11.17;;
3121;SDS011;1571;52.524;14.104;2023-09-08T06:35:54;14.47;;;10.70;;
3121;SDS011;1571;52.524;14.104;2023-09-08T06:38:23;13.83;;;10.60;;
3121;SDS011;1571;52.524;14.104;2023-09-08T06:40:51;12.03;;;10.83;;
3121;SDS011;1571;52.524;14.104;2023-09-08T06:43:21;13.53;;;11.10;;
3121;SDS011;1571;52.524;14.104;2023-09-08T06:45:57;11.83;;;10.73;;
3121;SDS011;1571;52.524;14.104;2023-09-08T06:48:26;11.73;;;10.53;;
3121;SDS011;1571;52.524;14.104;2023-09-08T06:50:54;17.50;;;11.30;;
3121;SDS011;1571;52.524;14.104;2023-09-08T06:53:25;12.90;;;10.60;;
3121;SDS011;1571;52.524;14.104;2023-09-08T06:55:53;11.50;;;10.30;;
3121;SDS011;1571;52.524;14.104;2023-09-08T06:58:22;14.40;;;10.43;;
3121;SDS011;1571;52.524;14.104;2023-09-08T07:00:50;10.83;;;9.73;;
3121;SDS011;1571;52.524;14.104;2023-09-08T07:03:23;9.50;;;8.57;;
3121;SDS011;1571;52.524;14.104;2023-09-08T07:05:53;11.43;;;10.23;;
3121;SDS011;1571;52.524;14.104;2023-09-08T07:08:23;11.60;;;9.23;;
3121;SDS011;1571;52.524;14.104;2023-09-08T07:10:51;11.27;;;9.50;;
3121;SDS011;1571;52.524;14.104;2023-09-08T07:13:21;11.03;;;9.27;;
3121;SDS011;1571;52.524;14.104;2023-09-08T07:15:50;11.27;;;9.10;;
3121;SDS011;1571;52.524;14.104;2023-09-08T07:18:18;8.63;;;7.70;;
3121;SDS011;1571;52.524;14.104;2023-09-08T07:20:48;9.07;;;8.03;;
3121;SDS011;1571;52.524;14.104;2023-09-08T07:23:19;7.70;;;7.00;;
3121;SDS011;1571;52.524;14.104;2023-09-08T07:25:47;7.40;;;6.30;;
3121;SDS011;1571;52.524;14.104;2023-09-08T07:28:19;7.50;;;6.73;;
3121;SDS011;1571;52.524;14.104;2023-09-08T07:30:50;7.77;;;6.83;;
3121;SDS011;1571;52.524;14.104;2023-09-08T07:33:19;8.33;;;7.50;;
3121;SDS011;1571;52.524;14.104;2023-09-08T07:35:51;6.70;;;6.10;;
3121;SDS011;1571;52.524;14.104;2023-09-08T07:38:19;9.07;;;7.50;;
3121;SDS011;1571;52.524;14.104;2023-09-08T07:40:47;7.60;;;6.57;;
3121;SDS011;1571;52.524;14.104;2023-09-08T07:43:16;8.70;;;7.80;;
3121;SDS011;1571;52.524;14.104;2023-09-08T07:45:44;7.80;;;7.10;;
3121;SDS011;1571;52.524;14.104;2023-09-08T07:48:12;7.90;;;7.10;;
3121;SDS011;1571;52.524;14.104;2023-09-08T07:50:41;7.83;;;7.20;;
3121;SDS011;1571;52.524;14.104;2023-09-08T07:53:10;7.23;;;6.33;;
3121;SDS011;1571;52.524;14.104;2023-09-08T07:55:39;9.90;;;7.07;;
3121;SDS011;1571;52.524;14.104;2023-09-08T07:58:07;7.60;;;6.83;;
3121;SDS011;1571;52.524;14.104;2023-09-08T08:00:36;7.37;;;6.70;;
3121;SDS011;1571;52.524;14.104;2023-09-08T08:03:04;7.27;;;5.60;;
3121;SDS011;1571;52.524;14.104;2023-09-08T08:05:34;8.13;;;6.07;;
3121;SDS011;1571;52.524;14.104;2023-09-08T08:08:02;7.33;;;5.60;;
3121;SDS011;1571;52.524;14.104;2023-09-08T08:10:32;7.50;;;6.40;;
3121;SDS011;1571;52.524;14.104;2023-09-08T08:13:01;5.47;;;5.07;;
3121;SDS011;1571;52.524;14.104;2023-09-08T08:15:36;7.20;;;6.17;;
3121;SDS011;1571;52.524;14.104;2023-09-08T08:18:05;5.50;;;5.00;;
3121;SDS011;1571;52.524;14.104;2023-09-08T08:20:37;7.33;;;6.20;;
3121;SDS011;1571;52.524;14.104;2023-09-08T08:23:05;8.60;;;6.43;;
3121;SDS011;1571;52.524;14.104;2023-09-08T08:25:36;5.33;;;4.83;;
3121;SDS011;1571;52.524;14.104;2023-09-08T08:28:04;7.43;;;5.90;;
3121;SDS011;1571;52.524;14.104;2023-09-08T08:30:33;10.63;;;6.43;;
3121;SDS011;1571;52.524;14.104;2023-09-08T08:33:02;8.83;;;6.20;;
3121;SDS011;1571;52.524;14.104;2023-09-08T08:35:31;5.57;;;5.03;;
3121;SDS011;1571;52.524;14.104;2023-09-08T08:38:00;5.63;;;5.13;;
3121;SDS011;1571;52.524;14.104;2023-09-08T08:40:28;7.07;;;5.37;;
3121;SDS011;1571;52.524;14.104;2023-09-08T08:43:02;8.60;;;5.10;;
3121;SDS011;1571;52.524;14.104;2023-09-08T08:45:30;5.60;;;5.10;;
3121;SDS011;1571;52.524;14.104;2023-09-08T08:48:00;5.57;;;5.07;;
3121;SDS011;1571;52.524;14.104;2023-09-08T08:50:29;4.83;;;4.43;;
3121;SDS011;1571;52.524;14.104;2023-09-08T08:52:59;7.73;;;5.07;;
3121;SDS011;1571;52.524;14.104;2023-09-08T08:55:29;5.57;;;5.07;;
3121;SDS011;1571;52.524;14.104;2023-09-08T08:58:00;6.40;;;5.60;;
3121;SDS011;1571;52.524;14.104;2023-09-08T09:00:33;6.33;;;5.13;;
3121;SDS011;1571;52.524;14.104;2023-09-08T09:03:04;5.90;;;4.90;;
3121;SDS011;1571;52.524;14.104;2023-09-08T09:05:41;6.77;;;6.07;;
3121;SDS011;1571;52.524;14.104;2023-09-08T09:08:14;4.70;;;3.83;;
3121;SDS011;1571;52.524;14.104;2023-09-08T09:10:45;6.50;;;5.90;;
3121;SDS011;1571;52.524;14.104;2023-09-08T09:13:15;4.40;;;4.10;;
3121;SDS011;1571;52.524;14.104;2023-09-08T09:15:43;5.20;;;4.70;;
3121;SDS011;1571;52.524;14.104;2023-09-08T09:18:13;5.17;;;4.67;;
3121;SDS011;1571;52.524;14.104;2023-09-08T09:20:42;4.97;;;4.40;;
3121;SDS011;1571;52.524;14.104;2023-09-08T09:23:28;4.90;;;4.40;;
3121;SDS011;1571;52.524;14.104;2023-09-08T09:25:58;7.57;;;4.87;;
3121;SDS011;1571;52.524;14.104;2023-09-08T09:28:29;5.40;;;5.00;;
3121;SDS011;1571;52.524;14.104;2023-09-08T09:30:58;4.70;;;4.30;;
3121;SDS011;1571;52.524;14.104;2023-09-08T09:33:26;5.30;;;4.90;;
3121;SDS011;1571;52.524;14.104;2023-09-08T09:35:56;5.00;;;4.60;;
3121;SDS011;1571;52.524;14.104;2023-09-08T09:38:26;3.97;;;3.60;;
3121;SDS011;1571;52.524;14.104;2023-09-08T09:40:55;5.23;;;4.63;;
3121;SDS011;1571;52.524;14.104;2023-09-08T09:43:24;4.70;;;4.30;;
3121;SDS011;1571;52.524;14.104;2023-09-08T09:45:56;4.70;;;4.30;;
3121;SDS011;1571;52.524;14.104;2023-09-08T09:48:25;5.93;;;4.87;;
3121;SDS011;1571;52.524;14.104;2023-09-08T09:50:53;4.03;;;3.73;;
3121;SDS011;1571;52.524;14.104;2023-09-08T09:53:22;6.00;;;4.53;;
3121;SDS011;1571;52.524;14.104;2023-09-08T09:55:50;4.63;;;4.33;;
3121;SDS011;1571;52.524;14.104;2023-09-08T09:58:19;4.03;;;3.73;;
3121;SDS011;1571;52.524;14.104;2023-09-08T10:00:49;4.90;;;4.33;;
3121;SDS011;1571;52.524;14.104;2023-09-08T10:03:19;5.03;;;4.53;;
3121;SDS011;1571;52.524;14.104;2023-09-08T10:05:48;3.60;;;3.40;;
3121;SDS011;1571;52.524;14.104;2023-09-08T10:08:17;7.57;;;4.73;;
3121;SDS011;1571;52.524;14.104;2023-09-08T10:10:46;5.17;;;4.20;;
3121;SDS011;1571;52.524;14.104;2023-09-08T10:13:15;4.83;;;4.30;;
3121;SDS011;1571;52.524;14.104;2023-09-08T10:15:48;4.67;;;4.27;;
3121;SDS011;1571;52.524;14.104;2023-09-08T10:18:17;4.23;;;3.87;;
3121;SDS011;1571;52.524;14.104;2023-09-08T10:20:50;4.07;;;3.67;;
3121;SDS011;1571;52.524;14.104;2023-09-08T10:23:20;4.37;;;3.90;;
3121;SDS011;1571;52.524;14.104;2023-09-08T10:25:53;4.47;;;3.90;;
3121;SDS011;1571;52.524;14.104;2023-09-08T10:28:30;5.60;;;4.30;;
3121;SDS011;1571;52.524;14.104;2023-09-08T10:31:00;3.83;;;3.53;;
3121;SDS011;1571;52.524;14.104;2023-09-08T10:33:31;4.93;;;4.40;;
3121;SDS011;1571;52.524;14.104;2023-09-08T10:36:02;5.00;;;4.60;;
3121;SDS011;1571;52.524;14.104;2023-09-08T10:38:33;5.30;;;4.80;;
3121;SDS011;1571;52.524;14.104;2023-09-08T10:44:02;5.70;;;4.63;;
3121;SDS011;1571;52.524;14.104;2023-09-08T10:46:35;4.17;;;3.83;;
3121;SDS011;1571;52.524;14.104;2023-09-08T10:49:06;5.77;;;4.70;;
3121;SDS011;1571;52.524;14.104;2023-09-08T10:51:37;4.70;;;4.40;;
3121;SDS011;1571;52.524;14.104;2023-09-08T10:54:06;4.10;;;3.80;;
3121;SDS011;1571;52.524;14.104;2023-09-08T10:56:47;5.30;;;4.87;;
3121;SDS011;1571;52.524;14.104;2023-09-08T10:59:17;4.90;;;4.40;;
3121;SDS011;1571;52.524;14.104;2023-09-08T11:01:47;6.00;;;5.10;;
3121;SDS011;1571;52.524;14.104;2023-09-08T11:04:16;5.80;;;5.30;;
3121;SDS011;1571;52.524;14.104;2023-09-08T11:06:46;3.83;;;3.57;;
3121;SDS011;1571;52.524;14.104;2023-09-08T11:09:14;4.10;;;3.80;;
3121;SDS011;1571;52.524;14.104;2023-09-08T11:11:43;5.37;;;4.90;;
3121;SDS011;1571;52.524;14.104;2023-09-08T11:14:13;4.47;;;4.07;;
3121;SDS011;1571;52.524;14.104;2023-09-08T11:16:41;5.37;;;4.87;;
3121;SDS011;1571;52.524;14.104;2023-09-08T11:19:10;4.93;;;4.30;;
3121;SDS011;1571;52.524;14.104;2023-09-08T11:21:41;3.90;;;3.60;;
3121;SDS011;1571;52.524;14.104;2023-09-08T11:24:09;4.90;;;4.43;;
3121;SDS011;1571;52.524;14.104;2023-09-08T11:26:41;5.33;;;4.83;;
3121;SDS011;1571;52.524;14.104;2023-09-08T11:29:13;4.23;;;3.93;;
3121;SDS011;1571;52.524;14.104;2023-09-08T11:31:41;4.80;;;4.07;;
3121;SDS011;1571;52.524;14.104;2023-09-08T11:34:11;5.63;;;5.20;;
3121;SDS011;1571;52.524;14.104;2023-09-08T11:36:43;4.00;;;3.70;;
3121;SDS011;1571;52.524;14.104;2023-09-08T11:39:12;4.00;;;3.70;;
3121;SDS011;1571;52.524;14.104;2023-09-08T11:41:42;6.90;;;4.50;;
3121;SDS011;1571;52.524;14.104;2023-09-08T11:44:14;4.90;;;4.13;;
3121;SDS011;1571;52.524;14.104;2023-09-08T11:46:44;4.20;;;3.90;;
3121;SDS011;1571;52.524;14.104;2023-09-08T11:49:18;3.90;;;3.60;;
3121;SDS011;1571;52.524;14.104;2023-09-08T11:51:48;4.50;;;4.10;;
3121;SDS011;1571;52.524;14.104;2023-09-08T11:54:17;4.13;;;3.53;;
3121;SDS011;1571;52.524;14.104;2023-09-08T11:56:45;4.90;;;4.40;;
3121;SDS011;1571;52.524;14.104;2023-09-08T11:59:14;6.00;;;3.33;;
3121;SDS011;1571;52.524;14.104;2023-09-08T12:01:43;4.43;;;4.07;;
3121;SDS011;1571;52.524;14.104;2023-09-08T12:04:16;4.20;;;3.60;;
3121;SDS011;1571;52.524;14.104;2023-09-08T12:06:46;4.20;;;3.90;;
3121;SDS011;1571;52.524;14.104;2023-09-08T12:09:16;3.80;;;3.50;;
3121;SDS011;1571;52.524;14.104;2023-09-08T12:11:44;4.57;;;4.10;;
3121;SDS011;1571;52.524;14.104;2023-09-08T12:14:14;4.13;;;3.83;;
3121;SDS011;1571;52.524;14.104;2023-09-08T12:16:43;4.37;;;3.97;;
3121;SDS011;1571;52.524;14.104;2023-09-08T12:19:30;3.87;;;3.53;;
3121;SDS011;1571;52.524;14.104;2023-09-08T12:22:01;4.57;;;4.17;;
3121;SDS011;1571;52.524;14.104;2023-09-08T12:24:46;4.33;;;4.03;;
3121;SDS011;1571;52.524;14.104;2023-09-08T12:27:18;4.53;;;4.13;;
3121;SDS011;1571;52.524;14.104;2023-09-08T12:29:54;4.30;;;3.90;;
3121;SDS011;1571;52.524;14.104;2023-09-08T12:32:23;4.30;;;3.90;;
3121;SDS011;1571;52.524;14.104;2023-09-08T12:34:52;4.93;;;4.10;;
3121;SDS011;1571;52.524;14.104;2023-09-08T12:37:22;5.03;;;4.50;;
3121;SDS011;1571;52.524;14.104;2023-09-08T12:39:51;3.90;;;3.43;;
3121;SDS011;1571;52.524;14.104;2023-09-08T12:42:19;4.10;;;3.80;;
3121;SDS011;1571;52.524;14.104;2023-09-08T12:44:48;4.57;;;4.23;;
3121;SDS011;1571;52.524;14.104;2023-09-08T12:47:17;3.97;;;3.60;;
3121;SDS011;1571;52.524;14.104;2023-09-08T12:49:45;3.53;;;3.33;;
3121;SDS011;1571;52.524;14.104;2023-09-08T12:52:13;6.20;;;4.03;;
3121;SDS011;1571;52.524;14.104;2023-09-08T12:54:44;3.80;;;3.50;;
3121;SDS011;1571;52.524;14.104;2023-09-08T12:57:12;3.80;;;3.50;;
3121;SDS011;1571;52.524;14.104;2023-09-08T12:59:41;4.37;;;3.20;;
3121;SDS011;1571;52.524;14.104;2023-09-08T13:02:09;3.80;;;3.50;;
3121;SDS011;1571;52.524;14.104;2023-09-08T13:04:39;3.80;;;3.50;;
3121;SDS011;1571;52.524;14.104;2023-09-08T13:07:07;3.83;;;3.47;;
3121;SDS011;1571;52.524;14.104;2023-09-08T13:09:36;3.63;;;3.40;;
3121;SDS011;1571;52.524;14.104;2023-09-08T13:12:06;3.80;;;3.47;;
3121;SDS011;1571;52.524;14.104;2023-09-08T13:14:35;3.73;;;3.43;;
3121;SDS011;1571;52.524;14.104;2023-09-08T13:17:04;4.13;;;3.83;;
3121;SDS011;1571;52.524;14.104;2023-09-08T13:19:32;4.80;;;3.80;;
3121;SDS011;1571;52.524;14.104;2023-09-08T13:22:00;4.27;;;3.87;;
3121;SDS011;1571;52.524;14.104;2023-09-08T13:24:29;3.93;;;3.50;;
3121;SDS011;1571;52.524;14.104;2023-09-08T13:26:57;5.40;;;4.90;;
3121;SDS011;1571;52.524;14.104;2023-09-08T13:29:27;5.07;;;3.70;;
3121;SDS011;1571;52.524;14.104;2023-09-08T13:31:56;4.17;;;3.80;;
3121;SDS011;1571;52.524;14.104;2023-09-08T13:34:25;3.80;;;3.50;;
3121;SDS011;1571;52.524;14.104;2023-09-08T13:36:53;3.53;;;3.13;;
3121;SDS011;1571;52.524;14.104;2023-09-08T13:39:21;4.10;;;3.80;;
3121;SDS011;1571;52.524;14.104;2023-09-08T13:41:50;4.43;;;4.03;;
3121;SDS011;1571;52.524;14.104;2023-09-08T13:44:19;3.53;;;3.23;;
3121;SDS011;1571;52.524;14.104;2023-09-08T13:46:50;3.57;;;3.30;;
3121;SDS011;1571;52.524;14.104;2023-09-08T13:49:21;4.33;;;3.67;;
3121;SDS011;1571;52.524;14.104;2023-09-08T13:51:53;3.60;;;3.30;;
3121;SDS011;1571;52.524;14.104;2023-09-08T13:54:23;4.17;;;3.20;;
3121;SDS011;1571;52.524;14.104;2023-09-08T13:56:57;3.27;;;3.07;;
3121;SDS011;1571;52.524;14.104;2023-09-08T13:59:27;4.00;;;3.70;;
3121;SDS011;1571;52.524;14.104;2023-09-08T14:02:03;6.37;;;3.87;;
3121;SDS011;1571;52.524;14.104;2023-09-08T14:04:34;4.10;;;3.40;;
3121;SDS011;1571;52.524;14.104;2023-09-08T14:07:06;3.93;;;3.63;;
3121;SDS011;1571;52.524;14.104;2023-09-08T14:09:43;3.90;;;3.60;;
3121;SDS011;1571;52.524;14.104;2023-09-08T14:12:21;3.87;;;3.43;;
3121;SDS011;1571;52.524;14.104;2023-09-08T14:14:54;3.63;;;3.33;;
3121;SDS011;1571;52.524;14.104;2023-09-08T14:17:23;4.50;;;3.23;;
3121;SDS011;1571;52.524;14.104;2023-09-08T14:19:52;4.20;;;3.47;;
3121;SDS011;1571;52.524;14.104;2023-09-08T14:22:20;4.63;;;3.90;;
3121;SDS011;1571;52.524;14.104;2023-09-08T14:24:48;4.33;;;3.93;;
3121;SDS011;1571;52.524;14.104;2023-09-08T14:27:16;3.40;;;3.20;;
3121;SDS011;1571;52.524;14.104;2023-09-08T14:29:45;3.37;;;3.07;;
3121;SDS011;1571;52.524;14.104;2023-09-08T14:32:13;3.90;;;3.60;;
3121;SDS011;1571;52.524;14.104;2023-09-08T14:34:43;4.00;;;3.60;;
3121;SDS011;1571;52.524;14.104;2023-09-08T14:37:11;5.83;;;3.30;;
3121;SDS011;1571;52.524;14.104;2023-09-08T14:39:39;3.53;;;3.23;;
3121;SDS011;1571;52.524;14.104;2023-09-08T14:42:08;3.60;;;3.30;;
3121;SDS011;1571;52.524;14.104;2023-09-08T14:44:36;3.80;;;3.50;;
3121;SDS011;1571;52.524;14.104;2023-09-08T14:47:05;3.90;;;3.60;;
3121;SDS011;1571;52.524;14.104;2023-09-08T14:49:33;3.73;;;3.40;;
3121;SDS011;1571;52.524;14.104;2023-09-08T14:52:03;3.77;;;3.47;;
3121;SDS011;1571;52.524;14.104;2023-09-08T14:54:31;4.30;;;3.90;;
3121;SDS011;1571;52.524;14.104;2023-09-08T14:56:59;4.30;;;3.90;;
3121;SDS011;1571;52.524;14.104;2023-09-08T14:59:27;3.00;;;2.80;;
3121;SDS011;1571;52.524;14.104;2023-09-08T15:01:56;3.70;;;3.40;;
3121;SDS011;1571;52.524;14.104;2023-09-08T15:04:24;4.90;;;3.77;;
3121;SDS011;1571;52.524;14.104;2023-09-08T15:06:52;3.87;;;3.57;;
3121;SDS011;1571;52.524;14.104;2023-09-08T15:09:22;4.03;;;3.00;;
3121;SDS011;1571;52.524;14.104;2023-09-08T15:11:50;3.00;;;2.80;;